Terminal Aerodrome Forecast
Issued by NWS

Home | Current Version | Previous Version | Text Only | Print | Product List | Glossary On
Versions: 1 2 3 4 5 6 7 8 9 10 11 12 13 14 15 16 17 18 19 20 21 22 23 24 25 26 27 28
000
FTUS42 KRAH 221723
TAFRWI
TAF
KRWI 221723Z 2218/2318 36009KT 5SM BR OVC005
      TEMPO 2218/2222 2SM -DZ OVC003
     FM230200 03008KT 3SM BR OVC003
      TEMPO 2302/2306 1 1/2SM -DZ BR OVC002
     FM231100 01006KT 2SM -RA BR OVC003=

USA.gov is the U.S. government's official web portal to all federal, state and local government web resources and services.